Arctic — VCLM — position and weather

sailwx.info

Track history (hours):
 
Tides and Currents Weather Stations Pressure Air Temp Water Temp Dewpoint Dewpoint Depression Visibility Wind Speed Wind Dir Waves Ship Positions

Arctic

Last reported at 2018-Apr-26 06:00 UTC. Time now 2018-Apr-26 07:52 UTC.
Position N 46°48' W 071°12'.

Length 220.8 m; beam 22.9 m; draft 11.5 m.

Type: Ship (hazmat cat A). MMSI: 316056000.

Wind from 030 at 5 knots

Barometer 1004.9 mb
Air temperature 9.9 ° C
Dewpoint 9.6 ° C

Date/timePositionNaut miles runAvg speedWind from/ knotsBaromVisibWave heightAir tempDewpointWater temp
2018-Apr-26 06:00N 46°48' W 071°12'0 0.0 030 / 51004.9 9.9 9.6
2018-Apr-26 00:00N 46°48' W 071°12'0 0.0 010 / 71011.5 10.3 8.1
2018-Apr-25 18:00N 46°48' W 071°12'0 0.0 210 / 81015.2 14.3 3.6
2018-Apr-25 12:00N 46°48' W 071°12'0 0.0 240 / 11017.4 9.1 2.7
2018-Apr-25 06:00N 46°48' W 071°12'0 0.0 220 / 21016.9 10.3 4.0
2018-Apr-25 00:00N 46°48' W 071°12'0 0.0 170 / 11018.1 15.5 4.4
2018-Apr-24 18:00N 46°48' W 071°12'0 0.0 230 / 101020.1 17.2 1.3
2018-Apr-24 12:00N 46°48' W 071°12'0 0.0 230 / 21024.1 3.6-1.0
2018-Apr-24 06:00N 46°48' W 071°12'0 0.0 250 / 21023.8 6.2-4.9
2018-Apr-24 00:00N 46°48' W 071°12'0 0.0 250 / 21024.9 13.9-6.4
2018-Apr-23 18:00N 46°48' W 071°12'0 0.0 220 / 121027.9 11.7-5.5
2018-Apr-23 12:00N 46°48' W 071°12'0 0.0 220 / 41031.4 1.6-4.8
2018-Apr-23 06:00N 46°48' W 071°12'0 0.0 1028.6 2.8-2.8
2018-Apr-23 00:00N 46°48' W 071°12'0 0.0 250 / 21026.3 11.7-10.6
2018-Apr-22 18:00N 46°48' W 071°12'0 0.0 220 / 161026.2 8.9-8.6
2018-Apr-22 12:00N 46°48' W 071°12'0 0.0 310 / 61027.5 3.2-8.5
2018-Apr-22 06:00N 46°48' W 071°12'0 0.0 310 / 41025.1 4.3-8.7
2018-Apr-22 00:00N 46°48' W 071°12'0 0.0 270 / 11023.1 9.1-7.0
2018-Apr-21 18:00N 46°48' W 071°12'0 0.0 310 / 41022.4 9.5-6.2
2018-Apr-21 12:00N 46°48' W 071°12'0 0.0 300 / 41024.0 4.0-3.6
2018-Apr-21 06:00N 46°48' W 071°12'0 0.0 270 / 31022.2 4.0-2.6
2018-Apr-21 00:00N 46°48' W 071°12'0 0.0 010 / 11020.4 6.4-3.0
2018-Apr-20 18:00N 46°48' W 071°12'0 0.0 060 / 91017.1 2.9 0.7
2018-Apr-20 12:00N 46°48' W 071°12'0 0.0 210 / 41013.2 2.2 1.3
2018-Apr-20 09:00N 46°48' W 071°12'0 0.0 1011.5 1.2 0.6
2018-Apr-20 08:00N 46°48' W 071°12'0 0.0 020 / 11010.9 1.8 0.7
2018-Apr-20 07:00N 46°48' W 071°12'0 0.0 040 / 21010.3 1.7 0.7
2018-Apr-20 06:00N 46°48' W 071°12'0 0.0 030 / 31009.6 1.8 1.1
2018-Apr-20 05:00N 46°48' W 071°12'0 0.0 040 / 21009.2 2.0 1.1
2018-Apr-20 04:00N 46°48' W 071°12'0 0.0 060 / 81008.7 1.8 0.4
2018-Apr-20 03:00N 46°48' W 071°12'0 0.0 070 / 91008.2 2.1 0.5
2018-Apr-20 02:00N 46°48' W 071°12'0 0.0 230 / 21007.9 2.4 1.6
2018-Apr-20 01:00N 46°48' W 071°12'0 0.0 220 / 51007.7 2.6 1.7
2018-Apr-20 00:00N 46°48' W 071°12'0 0.0 220 / 51007.2 3.2 1.7
2018-Apr-19 23:00N 46°48' W 071°12'0 0.0 240 / 81006.5 4.4 0.7
2018-Apr-19 22:00N 46°48' W 071°12'0 0.0 220 / 101006.3 5.0-1.6
2018-Apr-19 21:00N 46°48' W 071°12'0 0.0 220 / 71006.1 5.1-1.5
2018-Apr-19 20:00N 46°48' W 071°12'0 0.0 220 / 121005.4 4.6-1.9
2018-Apr-19 19:00N 46°48' W 071°12'0 0.0 220 / 121005.1 4.2-1.3
2018-Apr-19 18:00N 46°48' W 071°12'0 0.0 230 / 101004.7 4.8-1.5
2018-Apr-19 17:00N 46°48' W 071°12'0 0.0 230 / 81004.5 4.4-2.3
2018-Apr-19 16:00N 46°48' W 071°12'0 0.0 220 / 101004.2 4.2-2.5
2018-Apr-19 15:00N 46°48' W 071°12'0 0.0 210 / 131003.8 3.1-0.6
2018-Apr-19 14:00N 46°48' W 071°12'0 0.0 220 / 131003.5 3.1-0.2
2018-Apr-19 13:00N 46°48' W 071°12'0 0.0 230 / 81003.3 3.0-0.3
2018-Apr-19 11:00N 46°48' W 071°12'0 0.0 250 / 71002.7 2.2-0.4
2018-Apr-19 10:00N 46°48' W 071°12'0 0.0 250 / 81001.9 1.7-0.4
2018-Apr-19 09:00N 46°48' W 071°12'0 0.0 240 / 91001.6 2.1-0.0
2018-Apr-19 08:00N 46°48' W 071°12'0 0.0 250 / 71001.6 2.5-0.1
2018-Apr-19 07:00N 46°48' W 071°12'0 0.0 250 / 81001.4 2.8 0.4
2018-Apr-19 06:00N 46°48' W 071°12'0 0.0 250 / 91000.9 3.2 1.1
2018-Apr-19 05:00N 46°48' W 071°12'0 0.0 250 / 61000.8 3.7 1.7
2018-Apr-19 04:00N 46°48' W 071°12'0 0.0 250 / 61000.4 3.9 2.0
2018-Apr-19 03:00N 46°48' W 071°12'0 0.0 240 / 51000.3 4.0 2.3
2018-Apr-19 02:00N 46°48' W 071°12'0 0.0 240 / 61000.1 4.3 2.5
2018-Apr-19 01:00N 46°48' W 071°12'0 0.0 240 / 7999.9 4.7 2.7
2018-Apr-19 00:00N 46°48' W 071°12'0 0.0 250 / 7999.3 4.8 2.7
2018-Apr-18 23:00N 46°48' W 071°12'0 0.0 240 / 5999.5 4.6 2.9
2018-Apr-18 22:00N 46°48' W 071°12'0 0.0 250 / 10999.0 5.7 2.7
2018-Apr-18 21:00N 46°48' W 071°12'0 0.0 240 / 12998.6 5.8 2.2
2018-Apr-18 20:00N 46°48' W 071°12'0 0.0 250 / 12998.4 5.6 2.3
2018-Apr-18 19:00N 46°48' W 071°12'0 0.0 240 / 12998.0 4.8 2.2
2018-Apr-18 18:00N 46°48' W 071°12'0 0.0 280 / 12997.4 4.4 1.9
2018-Apr-18 17:00N 46°48' W 071°12'0 0.0 230 / 11996.7 4.3 1.8
2018-Apr-18 16:00N 46°48' W 071°12'0 0.0 230 / 11996.5 2.6 1.4
2018-Apr-18 14:00N 46°48' W 071°12'0 0.0 240 / 9996.1 1.4 1.0
2018-Apr-18 13:00N 46°48' W 071°12'0 0.0 240 / 9995.9 1.0 0.6
2018-Apr-18 12:00N 46°48' W 071°12'0 0.0 220 / 7996.4 0.6 0.5
2018-Apr-18 11:00N 46°48' W 071°12'0 0.0 220 / 7996.0 0.6 0.4
2018-Apr-18 10:00N 46°48' W 071°12'0 0.0 230 / 6996.1 0.6 0.4
2018-Apr-18 09:00N 46°48' W 071°12'0 0.0 230 / 7996.1 0.7 0.5
2018-Apr-18 08:00N 46°48' W 071°12'0 0.0 240 / 6996.3 0.7 0.5
2018-Apr-18 07:00N 46°48' W 071°12'0 0.0 240 / 5996.4 0.6 0.5
2018-Apr-18 06:00N 46°48' W 071°12'0 0.0 240 / 6996.7 0.6 0.4
2018-Apr-18 05:00N 46°48' W 071°12'0 0.0 240 / 2996.8 0.4 0.2
2018-Apr-18 04:00N 46°48' W 071°12'0 0.0 170 / 2996.9 0.4 0.2
2018-Apr-18 03:00N 46°48' W 071°12'0 0.0 230 / 3997.1 0.2 0.1
2018-Apr-18 02:00N 46°48' W 071°12'0 0.0 230 / 3997.0 0.2 0.1
2018-Apr-18 01:00N 46°48' W 071°12'0 0.0 260 / 1996.7 0.4 0.3
2018-Apr-18 00:00N 46°48' W 071°12'0 0.0 240 / 2996.3 0.1-0.0
2018-Apr-17 23:00N 46°48' W 071°12'0 0.0 100 / 3996.3 0.8 0.6
2018-Apr-17 22:00N 46°48' W 071°12'0 0.0 060 / 10996.1 1.2 1.0
2018-Apr-17 21:00N 46°48' W 071°12'0 0.0 060 / 12995.7 1.5 1.1
2018-Apr-17 20:00N 46°48' W 071°12'0 0.0 070 / 18996.0 1.0 0.6
2018-Apr-17 19:00N 46°48' W 071°12'0 0.0 060 / 18996.3 1.4 0.9
2018-Apr-17 18:00N 46°48' W 071°12'0 0.0 060 / 18996.4 1.5 1.0
2018-Apr-17 17:00N 46°48' W 071°12'0 0.0 070 / 19996.4 1.9 1.0
2018-Apr-17 16:00N 46°48' W 071°12'0 0.0 060 / 16997.5 1.5 0.9
2018-Apr-17 15:00N 46°48' W 071°12'0 0.0 060 / 22997.9 1.3 0.6
2018-Apr-17 14:00N 46°48' W 071°12'0 0.0 060 / 23997.9 1.5 0.5
2018-Apr-17 13:00N 46°48' W 071°12'0 0.0 060 / 19998.6 1.5 0.5
2018-Apr-17 12:00N 46°48' W 071°12'0 0.0 050 / 15999.7 1.1 0.6
2018-Apr-17 11:00N 46°48' W 071°12'0 0.0 050 / 161000.4 1.0 0.4
2018-Apr-17 10:00N 46°48' W 071°12'0 0.0 050 / 171001.0 1.2 0.1
2018-Apr-17 09:00N 46°48' W 071°12'0 0.0 060 / 181002.5 2.1-0.4
2018-Apr-17 08:00N 46°48' W 071°12'0 0.0 050 / 171003.6 1.7-0.4
2018-Apr-17 07:00N 46°48' W 071°12'0 0.0 050 / 171004.4 1.1-0.5
2018-Apr-17 06:00N 46°48' W 071°12'0 0.0 060 / 221005.6 1.1-0.4
2018-Apr-17 05:00N 46°48' W 071°12'0 0.0 060 / 221006.2 1.1-0.5
2018-Apr-17 04:00N 46°48' W 071°12'0 0.0 050 / 201007.5 1.3-0.7
2018-Apr-17 03:00N 46°48' W 071°12'0 0.0 050 / 191008.7 1.5-1.2
2018-Apr-17 02:00N 46°48' W 071°12'0 0.0 060 / 221010.9 1.2-1.4
2018-Apr-17 01:00N 46°48' W 071°12'0 0.0 060 / 271011.5 1.0-1.6
2018-Apr-17 00:00N 46°48' W 071°12'1 2.0 060 / 261013.0 0.5-1.7
2018-Apr-16 23:40N 46°48' W 071°13'1 1.0
2018-Apr-16 23:00N 46°48' W 071°12'0 0.0 050 / 211014.2 0.4-1.6
2018-Apr-16 22:00N 46°48' W 071°12'0 0.0 060 / 241014.9 0.4-2.0
2018-Apr-16 21:00N 46°48' W 071°12'0 0.0 060 / 211016.6 0.3-2.2
2018-Apr-16 20:00N 46°48' W 071°12'0 0.0 060 / 231017.5 -0.0-2.8
2018-Apr-16 19:00N 46°48' W 071°12'0 0.0 060 / 211019.6 -0.5-2.7
2018-Apr-16 18:00N 46°48' W 071°12'0 0.0 060 / 221021.1 -0.8-3.5
2018-Apr-16 17:00N 46°48' W 071°12'0 0.0 060 / 231022.2 -1.1-3.6
2018-Apr-16 16:00N 46°48' W 071°12'0 0.0 050 / 181024.2 -1.2-3.9
2018-Apr-16 15:00N 46°48' W 071°12'0 0.0 060 / 201025.5 -1.0-4.9
2018-Apr-16 14:00N 46°48' W 071°12'0 0.0 070 / 231026.7 -0.9-6.0
2018-Apr-16 13:00N 46°48' W 071°12'0 0.0 060 / 221027.8 -0.1-8.5
2018-Apr-16 12:00N 46°48' W 071°12'0 0.0 060 / 211028.5 -0.8-7.9
2018-Apr-16 11:00N 46°48' W 071°12'0 0.0 060 / 171029.0 -1.2-8.2
2018-Apr-16 10:00N 46°48' W 071°12'0 0.0 060 / 201029.2 -1.1-10.4
2018-Apr-16 09:00N 46°48' W 071°12'0 0.0 060 / 191030.1 -1.2-11.1
2018-Apr-16 08:00N 46°48' W 071°12'0 0.0 050 / 151031.1 -1.2-11.5
2018-Apr-16 07:00N 46°48' W 071°12'0 0.0 060 / 181032.8 -1.3-11.0
2018-Apr-16 06:00N 46°48' W 071°12'   060 / 201032.8 -1.5-10.3
Track history (hours):
 
Tides and Currents Weather Stations Pressure Air Temp Water Temp Dewpoint Dewpoint Depression Visibility Wind Speed Wind Dir Waves Ship Positions

Arctic

Last reported at 2018-Apr-26 06:00 UTC. Time now 2018-Apr-26 07:52 UTC.
Position N 46°48' W 071°12'.

Length 220.8 m; beam 22.9 m; draft 11.5 m.

Type: Ship (hazmat cat A). MMSI: 316056000.

Wind from 030 at 5 knots

Barometer 1004.9 mb
Air temperature 9.9 ° C
Dewpoint 9.6 ° C

Date/timePositionNaut miles runAvg speedWind from/ knotsBaromVisibWave heightAir tempDewpointWater temp
2018-Apr-26 06:00N 46°48' W 071°12'0 0.0 030 / 51004.9 9.9 9.6
2018-Apr-26 00:00N 46°48' W 071°12'0 0.0 010 / 71011.5 10.3 8.1
2018-Apr-25 18:00N 46°48' W 071°12'0 0.0 210 / 81015.2 14.3 3.6
2018-Apr-25 12:00N 46°48' W 071°12'0 0.0 240 / 11017.4 9.1 2.7
2018-Apr-25 06:00N 46°48' W 071°12'0 0.0 220 / 21016.9 10.3 4.0
2018-Apr-25 00:00N 46°48' W 071°12'0 0.0 170 / 11018.1 15.5 4.4
2018-Apr-24 18:00N 46°48' W 071°12'0 0.0 230 / 101020.1 17.2 1.3
2018-Apr-24 12:00N 46°48' W 071°12'0 0.0 230 / 21024.1 3.6-1.0
2018-Apr-24 06:00N 46°48' W 071°12'0 0.0 250 / 21023.8 6.2-4.9
2018-Apr-24 00:00N 46°48' W 071°12'0 0.0 250 / 21024.9 13.9-6.4
2018-Apr-23 18:00N 46°48' W 071°12'0 0.0 220 / 121027.9 11.7-5.5
2018-Apr-23 12:00N 46°48' W 071°12'0 0.0 220 / 41031.4 1.6-4.8
2018-Apr-23 06:00N 46°48' W 071°12'0 0.0 1028.6 2.8-2.8
2018-Apr-23 00:00N 46°48' W 071°12'0 0.0 250 / 21026.3 11.7-10.6
2018-Apr-22 18:00N 46°48' W 071°12'0 0.0 220 / 161026.2 8.9-8.6
2018-Apr-22 12:00N 46°48' W 071°12'0 0.0 310 / 61027.5 3.2-8.5
2018-Apr-22 06:00N 46°48' W 071°12'0 0.0 310 / 41025.1 4.3-8.7
2018-Apr-22 00:00N 46°48' W 071°12'0 0.0 270 / 11023.1 9.1-7.0
2018-Apr-21 18:00N 46°48' W 071°12'0 0.0 310 / 41022.4 9.5-6.2
2018-Apr-21 12:00N 46°48' W 071°12'0 0.0 300 / 41024.0 4.0-3.6
2018-Apr-21 06:00N 46°48' W 071°12'0 0.0 270 / 31022.2 4.0-2.6
2018-Apr-21 00:00N 46°48' W 071°12'0 0.0 010 / 11020.4 6.4-3.0
2018-Apr-20 18:00N 46°48' W 071°12'0 0.0 060 / 91017.1 2.9 0.7
2018-Apr-20 12:00N 46°48' W 071°12'0 0.0 210 / 41013.2 2.2 1.3
2018-Apr-20 09:00N 46°48' W 071°12'0 0.0 1011.5 1.2 0.6
2018-Apr-20 08:00N 46°48' W 071°12'0 0.0 020 / 11010.9 1.8 0.7
2018-Apr-20 07:00N 46°48' W 071°12'0 0.0 040 / 21010.3 1.7 0.7
2018-Apr-20 06:00N 46°48' W 071°12'0 0.0 030 / 31009.6 1.8 1.1
2018-Apr-20 05:00N 46°48' W 071°12'0 0.0 040 / 21009.2 2.0 1.1
2018-Apr-20 04:00N 46°48' W 071°12'0 0.0 060 / 81008.7 1.8 0.4
2018-Apr-20 03:00N 46°48' W 071°12'0 0.0 070 / 91008.2 2.1 0.5
2018-Apr-20 02:00N 46°48' W 071°12'0 0.0 230 / 21007.9 2.4 1.6
2018-Apr-20 01:00N 46°48' W 071°12'0 0.0 220 / 51007.7 2.6 1.7
2018-Apr-20 00:00N 46°48' W 071°12'0 0.0 220 / 51007.2 3.2 1.7
2018-Apr-19 23:00N 46°48' W 071°12'0 0.0 240 / 81006.5 4.4 0.7
2018-Apr-19 22:00N 46°48' W 071°12'0 0.0 220 / 101006.3 5.0-1.6
2018-Apr-19 21:00N 46°48' W 071°12'0 0.0 220 / 71006.1 5.1-1.5
2018-Apr-19 20:00N 46°48' W 071°12'0 0.0 220 / 121005.4 4.6-1.9
2018-Apr-19 19:00N 46°48' W 071°12'0 0.0 220 / 121005.1 4.2-1.3
2018-Apr-19 18:00N 46°48' W 071°12'0 0.0 230 / 101004.7 4.8-1.5
2018-Apr-19 17:00N 46°48' W 071°12'0 0.0 230 / 81004.5 4.4-2.3
2018-Apr-19 16:00N 46°48' W 071°12'0 0.0 220 / 101004.2 4.2-2.5
2018-Apr-19 15:00N 46°48' W 071°12'0 0.0 210 / 131003.8 3.1-0.6
2018-Apr-19 14:00N 46°48' W 071°12'0 0.0 220 / 131003.5 3.1-0.2
2018-Apr-19 13:00N 46°48' W 071°12'0 0.0 230 / 81003.3 3.0-0.3
2018-Apr-19 11:00N 46°48' W 071°12'0 0.0 250 / 71002.7 2.2-0.4
2018-Apr-19 10:00N 46°48' W 071°12'0 0.0 250 / 81001.9 1.7-0.4
2018-Apr-19 09:00N 46°48' W 071°12'0 0.0 240 / 91001.6 2.1-0.0
2018-Apr-19 08:00N 46°48' W 071°12'0 0.0 250 / 71001.6 2.5-0.1
2018-Apr-19 07:00N 46°48' W 071°12'0 0.0 250 / 81001.4 2.8 0.4
2018-Apr-19 06:00N 46°48' W 071°12'0 0.0 250 / 91000.9 3.2 1.1
2018-Apr-19 05:00N 46°48' W 071°12'0 0.0 250 / 61000.8 3.7 1.7
2018-Apr-19 04:00N 46°48' W 071°12'0 0.0 250 / 61000.4 3.9 2.0
2018-Apr-19 03:00N 46°48' W 071°12'0 0.0 240 / 51000.3 4.0 2.3
2018-Apr-19 02:00N 46°48' W 071°12'0 0.0 240 / 61000.1 4.3 2.5
2018-Apr-19 01:00N 46°48' W 071°12'0 0.0 240 / 7999.9 4.7 2.7
2018-Apr-19 00:00N 46°48' W 071°12'0 0.0 250 / 7999.3 4.8 2.7
2018-Apr-18 23:00N 46°48' W 071°12'0 0.0 240 / 5999.5 4.6 2.9
2018-Apr-18 22:00N 46°48' W 071°12'0 0.0 250 / 10999.0 5.7 2.7
2018-Apr-18 21:00N 46°48' W 071°12'0 0.0 240 / 12998.6 5.8 2.2
2018-Apr-18 20:00N 46°48' W 071°12'0 0.0 250 / 12998.4 5.6 2.3
2018-Apr-18 19:00N 46°48' W 071°12'0 0.0 240 / 12998.0 4.8 2.2
2018-Apr-18 18:00N 46°48' W 071°12'0 0.0 280 / 12997.4 4.4 1.9
2018-Apr-18 17:00N 46°48' W 071°12'0 0.0 230 / 11996.7 4.3 1.8
2018-Apr-18 16:00N 46°48' W 071°12'0 0.0 230 / 11996.5 2.6 1.4
2018-Apr-18 14:00N 46°48' W 071°12'0 0.0 240 / 9996.1 1.4 1.0
2018-Apr-18 13:00N 46°48' W 071°12'0 0.0 240 / 9995.9 1.0 0.6
2018-Apr-18 12:00N 46°48' W 071°12'0 0.0 220 / 7996.4 0.6 0.5
2018-Apr-18 11:00N 46°48' W 071°12'0 0.0 220 / 7996.0 0.6 0.4
2018-Apr-18 10:00N 46°48' W 071°12'0 0.0 230 / 6996.1 0.6 0.4
2018-Apr-18 09:00N 46°48' W 071°12'0 0.0 230 / 7996.1 0.7 0.5
2018-Apr-18 08:00N 46°48' W 071°12'0 0.0 240 / 6996.3 0.7 0.5
2018-Apr-18 07:00N 46°48' W 071°12'0 0.0 240 / 5996.4 0.6 0.5
2018-Apr-18 06:00N 46°48' W 071°12'0 0.0 240 / 6996.7 0.6 0.4
2018-Apr-18 05:00N 46°48' W 071°12'0 0.0 240 / 2996.8 0.4 0.2
2018-Apr-18 04:00N 46°48' W 071°12'0 0.0 170 / 2996.9 0.4 0.2
2018-Apr-18 03:00N 46°48' W 071°12'0 0.0 230 / 3997.1 0.2 0.1
2018-Apr-18 02:00N 46°48' W 071°12'0 0.0 230 / 3997.0 0.2 0.1
2018-Apr-18 01:00N 46°48' W 071°12'0 0.0 260 / 1996.7 0.4 0.3
2018-Apr-18 00:00N 46°48' W 071°12'0 0.0 240 / 2996.3 0.1-0.0
2018-Apr-17 23:00N 46°48' W 071°12'0 0.0 100 / 3996.3 0.8 0.6
2018-Apr-17 22:00N 46°48' W 071°12'0 0.0 060 / 10996.1 1.2 1.0
2018-Apr-17 21:00N 46°48' W 071°12'0 0.0 060 / 12995.7 1.5 1.1
2018-Apr-17 20:00N 46°48' W 071°12'0 0.0 070 / 18996.0 1.0 0.6
2018-Apr-17 19:00N 46°48' W 071°12'0 0.0 060 / 18996.3 1.4 0.9
2018-Apr-17 18:00N 46°48' W 071°12'0 0.0 060 / 18996.4 1.5 1.0
2018-Apr-17 17:00N 46°48' W 071°12'0 0.0 070 / 19996.4 1.9 1.0
2018-Apr-17 16:00N 46°48' W 071°12'0 0.0 060 / 16997.5 1.5 0.9
2018-Apr-17 15:00N 46°48' W 071°12'0 0.0 060 / 22997.9 1.3 0.6
2018-Apr-17 14:00N 46°48' W 071°12'0 0.0 060 / 23997.9 1.5 0.5
2018-Apr-17 13:00N 46°48' W 071°12'0 0.0 060 / 19998.6 1.5 0.5
2018-Apr-17 12:00N 46°48' W 071°12'0 0.0 050 / 15999.7 1.1 0.6
2018-Apr-17 11:00N 46°48' W 071°12'0 0.0 050 / 161000.4 1.0 0.4
2018-Apr-17 10:00N 46°48' W 071°12'0 0.0 050 / 171001.0 1.2 0.1
2018-Apr-17 09:00N 46°48' W 071°12'0 0.0 060 / 181002.5 2.1-0.4
2018-Apr-17 08:00N 46°48' W 071°12'0 0.0 050 / 171003.6 1.7-0.4
2018-Apr-17 07:00N 46°48' W 071°12'0 0.0 050 / 171004.4 1.1-0.5
2018-Apr-17 06:00N 46°48' W 071°12'0 0.0 060 / 221005.6 1.1-0.4
2018-Apr-17 05:00N 46°48' W 071°12'0 0.0 060 / 221006.2 1.1-0.5
2018-Apr-17 04:00N 46°48' W 071°12'0 0.0 050 / 201007.5 1.3-0.7
2018-Apr-17 03:00N 46°48' W 071°12'0 0.0 050 / 191008.7 1.5-1.2
2018-Apr-17 02:00N 46°48' W 071°12'0 0.0 060 / 221010.9 1.2-1.4
2018-Apr-17 01:00N 46°48' W 071°12'0 0.0 060 / 271011.5 1.0-1.6
2018-Apr-17 00:00N 46°48' W 071°12'1 2.0 060 / 261013.0 0.5-1.7
2018-Apr-16 23:40N 46°48' W 071°13'1 1.0
2018-Apr-16 23:00N 46°48' W 071°12'0 0.0 050 / 211014.2 0.4-1.6
2018-Apr-16 22:00N 46°48' W 071°12'0 0.0 060 / 241014.9 0.4-2.0
2018-Apr-16 21:00N 46°48' W 071°12'0 0.0 060 / 211016.6 0.3-2.2
2018-Apr-16 20:00N 46°48' W 071°12'0 0.0 060 / 231017.5 -0.0-2.8
2018-Apr-16 19:00N 46°48' W 071°12'0 0.0 060 / 211019.6 -0.5-2.7
2018-Apr-16 18:00N 46°48' W 071°12'0 0.0 060 / 221021.1 -0.8-3.5
2018-Apr-16 17:00N 46°48' W 071°12'0 0.0 060 / 231022.2 -1.1-3.6
2018-Apr-16 16:00N 46°48' W 071°12'0 0.0 050 / 181024.2 -1.2-3.9
2018-Apr-16 15:00N 46°48' W 071°12'0 0.0 060 / 201025.5 -1.0-4.9
2018-Apr-16 14:00N 46°48' W 071°12'0 0.0 070 / 231026.7 -0.9-6.0
2018-Apr-16 13:00N 46°48' W 071°12'0 0.0 060 / 221027.8 -0.1-8.5
2018-Apr-16 12:00N 46°48' W 071°12'0 0.0 060 / 211028.5 -0.8-7.9
2018-Apr-16 11:00N 46°48' W 071°12'0 0.0 060 / 171029.0 -1.2-8.2
2018-Apr-16 10:00N 46°48' W 071°12'0 0.0 060 / 201029.2 -1.1-10.4
2018-Apr-16 09:00N 46°48' W 071°12'0 0.0 060 / 191030.1 -1.2-11.1
2018-Apr-16 08:00N 46°48' W 071°12'0 0.0 050 / 151031.1 -1.2-11.5
2018-Apr-16 07:00N 46°48' W 071°12'0 0.0 060 / 181032.8 -1.3-11.0
2018-Apr-16 06:00N 46°48' W 071°12'   060 / 201032.8 -1.5-10.3

Dump ship's entire track history